createdAt,value
2017-05-19T00:00:49.462Z,48.81
2017-05-19T00:01:59.730Z,49
2017-05-19T00:03:09.998Z,49
2017-05-19T00:04:20.266Z,49.1
2017-05-19T00:05:30.226Z,49.1
2017-05-19T00:06:40.184Z,49.29
2017-05-19T00:07:50.524Z,49.19
2017-05-19T00:09:00.479Z,49.1
2017-05-19T00:10:10.426Z,49.19
2017-05-19T00:11:20.061Z,49
2017-05-19T00:12:30.066Z,49.1
2017-05-19T00:13:40.338Z,49.58
2017-05-19T00:14:50.606Z,49
2017-05-19T00:16:00.557Z,49
2017-05-19T00:17:10.827Z,49.29
2017-05-19T00:18:20.475Z,49.19
2017-05-19T00:19:30.423Z,48.9
2017-05-19T00:20:40.370Z,49.39
2017-05-19T00:21:50.324Z,49.48
2017-05-19T00:23:00.281Z,49
2017-05-19T00:24:10.231Z,49.1
2017-05-19T00:25:20.187Z,49.58
2017-05-19T00:26:30.456Z,49.19
2017-05-19T00:27:40.096Z,48.9
2017-05-19T00:28:50.051Z,49.19
2017-05-19T00:30:00.316Z,49.58
2017-05-19T00:31:10.273Z,49
2017-05-19T00:32:19.909Z,49.19
2017-05-19T00:33:29.246Z,49.19
2017-05-19T00:34:39.516Z,49.29
2017-05-19T00:35:49.527Z,49.19
2017-05-19T00:36:59.794Z,49.29
2017-05-19T00:38:09.426Z,49.19
2017-05-19T00:39:19.692Z,49.1
2017-05-19T00:40:29.969Z,48.81
2017-05-19T00:41:39.922Z,48.9
2017-05-19T00:42:49.874Z,49.1
2017-05-19T00:43:59.837Z,49
2017-05-19T00:45:09.494Z,49.39
2017-05-19T00:46:19.768Z,48.9
2017-05-19T00:47:29.724Z,49.48
2017-05-19T00:48:39.390Z,48.9
2017-05-19T00:49:49.660Z,49.29
2017-05-19T00:50:59.935Z,49.19
2017-05-19T00:52:09.255Z,49
2017-05-19T00:53:19.208Z,49.1
2017-05-19T00:54:29.166Z,49.1
2017-05-19T00:55:39.429Z,49.19
2017-05-19T00:56:49.386Z,49.1
2017-05-19T00:57:59.025Z,49.29
2017-05-19T00:59:08.348Z,49.39
2017-05-19T01:00:18.309Z,49.1
2017-05-19T01:01:28.261Z,49.29
2017-05-19T01:02:38.531Z,49.29
2017-05-19T01:03:48.799Z,49.1
2017-05-19T01:04:58.755Z,49
2017-05-19T01:06:08.081Z,49.29
2017-05-19T01:07:17.400Z,49.39
2017-05-19T01:08:27.671Z,49.29
2017-05-19T01:09:37.639Z,49.1
2017-05-19T01:10:47.907Z,49.39
2017-05-19T01:11:57.546Z,49
2017-05-19T01:13:07.498Z,49
2017-05-19T01:14:17.450Z,49.39
2017-05-19T01:15:27.088Z,49.58
2017-05-19T01:16:37.041Z,49.19
2017-05-19T01:17:46.687Z,49.48
2017-05-19T01:18:56.695Z,49.29
2017-05-19T01:20:06.652Z,49.29
2017-05-19T01:21:16.609Z,49.39
2017-05-19T01:22:26.869Z,49.29
2017-05-19T01:23:36.824Z,49.29
2017-05-19T01:24:47.089Z,49.39
2017-05-19T01:25:57.355Z,49.29
2017-05-19T01:27:07.300Z,49.39
2017-05-19T01:28:17.571Z,49.19
2017-05-19T01:29:27.533Z,49.29
2017-05-19T01:30:37.811Z,49.29
2017-05-19T01:31:47.452Z,49.39
2017-05-19T01:32:57.721Z,49.48
2017-05-19T01:34:07.984Z,49.48
2017-05-19T01:35:17.931Z,49.39
2017-05-19T01:36:27.262Z,49.29
2017-05-19T01:37:36.900Z,49.48
2017-05-19T01:38:47.173Z,49.39
2017-05-19T01:39:57.447Z,49.29
2017-05-19T01:41:07.716Z,49.29
2017-05-19T01:42:17.978Z,49.19
2017-05-19T01:43:27.626Z,49
2017-05-19T01:44:37.577Z,49.29
2017-05-19T01:45:47.216Z,49.39
2017-05-19T01:46:57.483Z,49.39
2017-05-19T01:48:07.434Z,49.19
2017-05-19T01:49:17.081Z,49.48
2017-05-19T01:50:27.036Z,48.9
2017-05-19T01:51:36.985Z,49.39
2017-05-19T01:52:46.940Z,49.19
2017-05-19T01:53:57.204Z,49.48
2017-05-19T01:55:07.470Z,49.19
2017-05-19T01:56:17.109Z,49.48
2017-05-19T01:57:27.373Z,49.68
2017-05-19T01:58:37.327Z,49.68
2017-05-19T01:59:47.597Z,49.1
2017-05-19T02:00:57.551Z,49.39
2017-05-19T02:02:07.508Z,49.77
2017-05-19T02:03:17.464Z,49.39
2017-05-19T02:04:27.105Z,49.39
2017-05-19T02:05:37.373Z,49.19
2017-05-19T02:06:47.020Z,49.29
2017-05-19T02:07:56.976Z,49.29
2017-05-19T02:09:06.619Z,49.96
2017-05-19T02:10:16.890Z,49.68
2017-05-19T02:11:27.173Z,49.48
2017-05-19T02:12:37.135Z,49.1
2017-05-19T02:13:47.400Z,49.1
2017-05-19T02:14:57.359Z,49.1
2017-05-19T02:16:07.628Z,49.58
2017-05-19T02:17:17.893Z,49.48
2017-05-19T02:18:27.844Z,49.1
2017-05-19T02:19:37.488Z,49.19
2017-05-19T02:20:47.764Z,49.19
2017-05-19T02:21:58.041Z,49.17
2017-05-19T02:23:07.999Z,49.39
2017-05-19T02:24:16.702Z,49.58
2017-05-19T02:25:26.667Z,49.46
2017-05-19T02:26:36.935Z,49.46
2017-05-19T02:27:46.890Z,49.46
2017-05-19T02:28:56.847Z,49.19
2017-05-19T02:30:07.125Z,49.27
2017-05-19T02:31:16.766Z,49.19
2017-05-19T02:32:26.719Z,49.48
2017-05-19T02:33:36.679Z,49.17
2017-05-19T02:34:46.634Z,49.17
2017-05-19T02:35:56.900Z,49.68
2017-05-19T02:37:07.163Z,49.1
2017-05-19T02:38:16.807Z,49.48
2017-05-19T02:39:26.760Z,49.19
2017-05-19T02:40:37.026Z,48.3
2017-05-19T02:41:46.978Z,49.07
2017-05-19T02:42:57.251Z,49.27
2017-05-19T02:44:07.204Z,49.07
2017-05-19T02:45:16.847Z,49.27
2017-05-19T02:46:27.123Z,49.46
2017-05-19T02:47:37.394Z,49.37
2017-05-19T02:48:47.357Z,49.65
2017-05-19T02:49:57.322Z,49.55
2017-05-19T02:51:06.969Z,49.58
2017-05-19T02:52:16.921Z,49.58
2017-05-19T02:53:27.200Z,49.48
2017-05-19T02:54:37.469Z,49.58
2017-05-19T02:55:47.412Z,49.46
2017-05-19T02:56:57.684Z,49.58
2017-05-19T02:58:07.950Z,49.77
2017-05-19T02:59:17.586Z,49.96
2017-05-19T03:00:27.543Z,49.87
2017-05-19T03:01:37.490Z,50.06
2017-05-19T03:02:47.132Z,49.87
2017-05-19T03:03:57.398Z,49.87
2017-05-19T03:05:07.666Z,49.77
2017-05-19T03:06:17.305Z,49.77
2017-05-19T03:07:26.951Z,50.06
2017-05-19T03:08:36.906Z,49.87
2017-05-19T03:09:47.196Z,49.77
2017-05-19T03:10:57.156Z,49.87
2017-05-19T03:12:07.426Z,49.77
2017-05-19T03:13:17.433Z,49.68
2017-05-19T03:14:27.705Z,49.77
2017-05-19T03:15:37.343Z,49.77
2017-05-19T03:16:47.618Z,49.87
2017-05-19T03:17:57.254Z,49.68
2017-05-19T03:19:07.526Z,49.77
2017-05-19T03:20:17.198Z,49.87
2017-05-19T03:21:27.150Z,50.16
2017-05-19T03:22:36.794Z,49.77
2017-05-19T03:23:47.060Z,50.06
2017-05-19T03:24:57.382Z,50.06
2017-05-19T03:26:07.339Z,49.58
2017-05-19T03:27:16.993Z,49.58
2017-05-19T03:28:27.255Z,49.96
2017-05-19T03:29:37.527Z,49.77
2017-05-19T03:30:47.804Z,50.06
2017-05-19T03:31:57.756Z,50.06
2017-05-19T03:33:08.029Z,49.96
2017-05-19T03:34:17.670Z,49.77
2017-05-19T03:35:27.624Z,50.16
2017-05-19T03:36:37.579Z,50.16
2017-05-19T03:37:47.533Z,49.77
2017-05-19T03:38:57.179Z,50.06
2017-05-19T03:40:07.451Z,49.68
2017-05-19T03:41:17.088Z,50.16
2017-05-19T03:42:26.725Z,49.96
2017-05-19T03:43:36.998Z,49.77
2017-05-19T03:44:47.264Z,50.16
2017-05-19T03:45:57.219Z,50.26
2017-05-19T03:47:07.177Z,50.26
2017-05-19T03:48:16.505Z,49.77
2017-05-19T03:49:26.449Z,50.26
2017-05-19T03:50:36.717Z,49.96
2017-05-19T03:51:46.984Z,49.77
2017-05-19T03:52:56.949Z,50.16
2017-05-19T03:54:07.223Z,49.96
2017-05-19T03:55:16.876Z,49.77
2017-05-19T03:56:26.198Z,49.68
2017-05-19T03:57:36.156Z,49.96
2017-05-19T03:58:46.431Z,49.58
2017-05-19T03:59:56.074Z,49.96
2017-05-19T04:01:06.049Z,50.06
2017-05-19T04:02:15.748Z,49.87
2017-05-19T04:03:25.704Z,49.96
2017-05-19T04:04:35.349Z,50.32
2017-05-19T04:05:45.636Z,49.96
2017-05-19T04:06:55.906Z,49.96
2017-05-19T04:08:05.861Z,50.06
2017-05-19T04:09:15.828Z,49.96
2017-05-19T04:10:25.785Z,49.96
2017-05-19T04:11:35.741Z,49.96
2017-05-19T04:12:45.706Z,50.06
2017-05-19T04:13:55.983Z,50.16
2017-05-19T04:15:05.632Z,49.77
2017-05-19T04:16:14.952Z,49.77
2017-05-19T04:17:25.216Z,49.68
2017-05-19T04:18:35.489Z,49.87
2017-05-19T04:19:45.761Z,50.16
2017-05-19T04:20:56.041Z,49.77
2017-05-19T04:22:05.989Z,49.87
2017-05-19T04:23:15.633Z,49.77
2017-05-19T04:24:25.590Z,49.96
2017-05-19T04:25:35.233Z,50.06
2017-05-19T04:26:45.502Z,50.04
2017-05-19T04:27:55.766Z,49.65
2017-05-19T04:29:05.716Z,50.04
2017-05-19T04:30:15.356Z,49.65
2017-05-19T04:31:25.627Z,49.68
2017-05-19T04:32:35.270Z,49.84
2017-05-19T04:33:45.549Z,49.58
2017-05-19T04:34:55.509Z,49.77
2017-05-19T04:36:05.469Z,49.77
2017-05-19T04:37:15.735Z,49.77
2017-05-19T04:38:26.197Z,49.77
2017-05-19T04:39:36.154Z,49.75
2017-05-19T04:40:45.794Z,50.06
2017-05-19T04:41:56.061Z,49.75
2017-05-19T04:43:06.324Z,49.94
2017-05-19T04:44:15.347Z,50.26
2017-05-19T04:45:24.683Z,50.16
2017-05-19T04:46:34.635Z,49.96
2017-05-19T04:47:44.904Z,49.87
2017-05-19T04:48:54.857Z,49.87
2017-05-19T04:50:04.816Z,49.77
2017-05-19T04:51:14.777Z,49.58
2017-05-19T04:52:25.086Z,49.58
2017-05-19T04:53:34.735Z,49.29
2017-05-19T04:54:44.384Z,49.58
2017-05-19T04:55:54.673Z,49.58
2017-05-19T04:57:04.625Z,49.48
2017-05-19T04:58:14.574Z,49.48
2017-05-19T04:59:24.847Z,49.29
2017-05-19T05:00:34.487Z,49.58
2017-05-19T05:01:44.436Z,49.58
2017-05-19T05:02:54.711Z,49.68
2017-05-19T05:04:04.983Z,50.16
2017-05-19T05:05:14.938Z,49.96
2017-05-19T05:06:25.213Z,49.68
2017-05-19T05:07:35.172Z,49.77
2017-05-19T05:08:45.132Z,49.58
2017-05-19T05:09:54.775Z,49.39
2017-05-19T05:11:05.048Z,49.39
2017-05-19T05:12:14.683Z,49.58
2017-05-19T05:13:24.324Z,49.58
2017-05-19T05:14:34.279Z,49.39
2017-05-19T05:15:44.552Z,49.68
2017-05-19T05:16:54.819Z,49.77
2017-05-19T05:18:04.776Z,49.87
2017-05-19T05:19:14.422Z,49.68
2017-05-19T05:20:24.370Z,49.77
2017-05-19T05:21:33.381Z,49.48
2017-05-19T05:22:43.335Z,49.68
2017-05-19T05:23:52.978Z,49.58
2017-05-19T05:25:02.933Z,49.58
2017-05-19T05:26:12.565Z,49.87
2017-05-19T05:27:21.890Z,49.87
2017-05-19T05:28:31.848Z,49.77
2017-05-19T05:29:41.488Z,49.77
2017-05-19T05:30:51.436Z,49.58
2017-05-19T05:32:01.713Z,49.77
2017-05-19T05:33:11.983Z,49.87
2017-05-19T05:34:21.719Z,49.58
2017-05-19T05:35:31.987Z,49.68
2017-05-19T05:36:40.997Z,49.87
2017-05-19T05:37:51.267Z,49.68
2017-05-19T05:39:00.918Z,49.87
2017-05-19T05:40:10.558Z,49.77
2017-05-19T05:41:20.193Z,49.68
2017-05-19T05:42:30.455Z,49.77
2017-05-19T05:43:40.414Z,49.58
2017-05-19T05:44:50.702Z,49.19
2017-05-19T05:46:00.656Z,49.48
2017-05-19T05:47:10.617Z,49.58
2017-05-19T05:48:20.257Z,49.58
2017-05-19T05:49:30.266Z,49.58
2017-05-19T05:50:40.223Z,49.77
2017-05-19T05:51:50.493Z,49.58
2017-05-19T05:53:00.153Z,49.58
2017-05-19T05:54:09.787Z,49.77
2017-05-19T05:55:19.735Z,49.96
2017-05-19T05:56:29.376Z,49.77
2017-05-19T05:57:39.337Z,49.87
2017-05-19T05:58:49.605Z,49.58
2017-05-19T05:59:59.561Z,49.68
2017-05-19T06:01:09.199Z,49.58
2017-05-19T06:02:19.156Z,49.58
2017-05-19T06:03:28.794Z,49.96
2017-05-19T06:04:38.754Z,50.06
2017-05-19T06:05:48.394Z,49.96
2017-05-19T06:06:58.659Z,50.26
2017-05-19T06:08:08.925Z,50.26
2017-05-19T06:09:18.579Z,50.06
2017-05-19T06:10:27.918Z,49.87
2017-05-19T06:11:37.872Z,50.26
2017-05-19T06:12:48.139Z,49.68
2017-05-19T06:13:58.089Z,49.96
2017-05-19T06:15:07.410Z,49.96
2017-05-19T06:16:16.729Z,50.06
2017-05-19T06:17:26.680Z,49.77
2017-05-19T06:18:36.632Z,50.16
2017-05-19T06:19:46.589Z,50.06
2017-05-19T06:20:56.862Z,49.77
2017-05-19T06:22:07.132Z,49.68
2017-05-19T06:23:16.458Z,49.77
2017-05-19T06:24:26.097Z,49.96
2017-05-19T06:25:35.745Z,49.77
2017-05-19T06:26:46.013Z,49.87
2017-05-19T06:27:55.965Z,50.06
2017-05-19T06:29:06.230Z,49.77
2017-05-19T06:30:16.185Z,49.96
2017-05-19T06:31:25.820Z,50.06
2017-05-19T06:32:36.091Z,49.68
2017-05-19T06:33:46.360Z,49.77
2017-05-19T06:34:56.336Z,49.68
2017-05-19T06:36:06.303Z,49.9
2017-05-19T06:37:16.258Z,49.51
2017-05-19T06:38:25.912Z,49.48
2017-05-19T06:39:36.183Z,49.51
2017-05-19T06:40:46.448Z,49.29
2017-05-19T06:41:56.400Z,49.6
2017-05-19T06:43:06.353Z,49.32
2017-05-19T06:44:16.310Z,49.32
2017-05-19T06:45:26.261Z,49.02
2017-05-19T06:46:36.208Z,49.12
2017-05-19T06:47:46.475Z,48.64
2017-05-19T06:48:56.438Z,48.74
2017-05-19T06:50:06.713Z,49.6
2017-05-19T06:51:16.667Z,50.67
2017-05-19T06:52:26.935Z,49.12
2017-05-19T06:53:37.210Z,49.51
2017-05-19T06:54:47.170Z,50.09
2017-05-19T06:55:57.128Z,49.51
2017-05-19T06:57:07.140Z,49.32
2017-05-19T06:58:16.151Z,49.6
2017-05-19T06:59:26.104Z,49.51
2017-05-19T07:00:36.113Z,49.32
2017-05-19T07:01:46.065Z,49.12
2017-05-19T07:02:56.018Z,48.93
2017-05-19T07:04:05.974Z,49.6
2017-05-19T07:05:15.610Z,49.32
2017-05-19T07:06:25.568Z,49.12
2017-05-19T07:07:35.206Z,48.64
2017-05-19T07:08:44.846Z,48.66
2017-05-19T07:09:54.789Z,49.05
2017-05-19T07:11:04.740Z,48.57
2017-05-19T07:12:14.695Z,49.05
2017-05-19T07:13:24.968Z,48.66
2017-05-19T07:14:34.926Z,48.76
2017-05-19T07:15:44.568Z,48.83
2017-05-19T07:16:54.521Z,49.73
2017-05-19T07:18:03.841Z,48.93
2017-05-19T07:19:13.481Z,49.34
2017-05-19T07:20:23.120Z,49.22
2017-05-19T07:21:33.074Z,49.32
2017-05-19T07:22:43.029Z,49.9
2017-05-19T07:23:53.299Z,50.18
2017-05-19T07:25:03.249Z,50.38
2017-05-19T07:26:12.901Z,50.86
2017-05-19T07:27:22.553Z,50.38
2017-05-19T07:28:32.191Z,50.86
2017-05-19T07:29:42.487Z,51.25
2017-05-19T07:30:52.444Z,51.53
2017-05-19T07:32:02.708Z,51.05
2017-05-19T07:33:12.038Z,51.73
2017-05-19T07:34:21.682Z,51.25
2017-05-19T07:35:31.319Z,51.25
2017-05-19T07:36:40.326Z,51.82
2017-05-19T07:37:50.287Z,51.65
2017-05-19T07:38:59.934Z,50.69
2017-05-19T07:40:09.584Z,50.5
2017-05-19T07:41:19.221Z,50.59
2017-05-19T07:42:29.165Z,50.96
2017-05-19T07:43:39.121Z,50.89
2017-05-19T07:44:49.078Z,50.59
2017-05-19T07:45:59.354Z,51.37
2017-05-19T07:47:08.680Z,51.27
2017-05-19T07:48:18.636Z,51.65
2017-05-19T07:49:28.926Z,51.56
2017-05-19T07:50:38.930Z,51.75
2017-05-19T07:51:48.574Z,51.65
2017-05-19T07:52:58.527Z,51.63
2017-05-19T07:54:08.164Z,51.75
2017-05-19T07:55:18.118Z,51.73
2017-05-19T07:56:28.391Z,51.63
2017-05-19T07:57:37.709Z,51.73
2017-05-19T07:58:47.979Z,51.82
2017-05-19T07:59:57.933Z,51.92
2017-05-19T08:01:07.256Z,51.44
2017-05-19T08:02:16.889Z,52.04
2017-05-19T08:03:27.147Z,51.82
2017-05-19T08:04:36.474Z,52.04
2017-05-19T08:05:46.742Z,51.53
2017-05-19T08:06:56.069Z,51.73
2017-05-19T08:08:06.337Z,51.82
2017-05-19T08:09:15.354Z,52.01
2017-05-19T08:10:24.997Z,51.73
2017-05-19T08:11:34.322Z,51.73
2017-05-19T08:12:43.967Z,51.92
2017-05-19T08:13:52.975Z,52.01
2017-05-19T08:15:03.241Z,51.92
2017-05-19T08:16:12.561Z,51.92
2017-05-19T08:17:22.827Z,51.82
2017-05-19T08:18:32.780Z,52.01
2017-05-19T08:19:42.731Z,51.92
2017-05-19T08:20:52.068Z,51.92
2017-05-19T08:22:02.025Z,51.82
2017-05-19T08:23:11.664Z,51.73
2017-05-19T08:24:20.993Z,52.01
2017-05-19T08:25:31.261Z,52.01
2017-05-19T08:26:40.902Z,51.92
2017-05-19T08:27:50.859Z,51.92
2017-05-19T08:29:00.496Z,51.82
2017-05-19T08:30:10.466Z,51.92
2017-05-19T08:31:20.107Z,51.82
2017-05-19T08:32:30.369Z,52.21
2017-05-19T08:33:40.318Z,52.01
2017-05-19T08:34:49.955Z,51.92
2017-05-19T08:35:59.291Z,52.01
2017-05-19T08:37:08.618Z,52.4
2017-05-19T08:38:18.584Z,52.21
2017-05-19T08:39:27.908Z,52.01
2017-05-19T08:40:37.548Z,51.92
2017-05-19T08:41:47.185Z,52.11
2017-05-19T08:42:56.827Z,51.92
2017-05-19T08:44:06.780Z,52.01
2017-05-19T08:45:16.434Z,52.21
2017-05-19T08:46:25.752Z,52.21
2017-05-19T08:47:35.702Z,52.4
2017-05-19T08:48:45.654Z,52.4
2017-05-19T08:49:55.611Z,52.31
2017-05-19T08:51:05.881Z,52.11
2017-05-19T08:52:15.519Z,52.5
2017-05-19T08:53:25.152Z,52.11
2017-05-19T08:54:34.475Z,52.21
2017-05-19T08:55:44.744Z,51.92
2017-05-19T08:56:54.696Z,52.4
2017-05-19T08:58:04.647Z,51.92
2017-05-19T08:59:14.912Z,52.4
2017-05-19T09:00:24.867Z,52.53
2017-05-19T09:01:33.874Z,52.04
2017-05-19T09:02:44.150Z,52.69
2017-05-19T09:03:53.793Z,52.21
2017-05-19T09:05:03.755Z,52.21
2017-05-19T09:06:13.392Z,52.31
2017-05-19T09:07:23.350Z,52.79
2017-05-19T09:08:32.356Z,52.4
2017-05-19T09:09:42.307Z,52.59
2017-05-19T09:10:52.582Z,52.4
2017-05-19T09:12:02.221Z,52.21
2017-05-19T09:13:12.485Z,52.79
2017-05-19T09:14:21.817Z,52.89
2017-05-19T09:15:32.132Z,52.59
2017-05-19T09:16:42.084Z,52.31
2017-05-19T09:17:52.358Z,52.4
2017-05-19T09:19:02.316Z,52.79
2017-05-19T09:20:12.592Z,52.43
2017-05-19T09:21:22.552Z,52.4
2017-05-19T09:22:32.192Z,52.11
2017-05-19T09:23:42.460Z,52.4
2017-05-19T09:24:52.730Z,52.31
2017-05-19T09:26:02.366Z,52.69
2017-05-19T09:27:11.686Z,52.4
2017-05-19T09:28:21.326Z,52.4
2017-05-19T09:29:31.612Z,52.31
2017-05-19T09:30:41.256Z,52.11
2017-05-19T09:31:51.214Z,52.21
2017-05-19T09:33:01.480Z,52.69
2017-05-19T09:34:11.115Z,52.31
2017-05-19T09:35:20.764Z,52.43
2017-05-19T09:36:30.743Z,52.4
2017-05-19T09:37:40.699Z,52.59
2017-05-19T09:38:50.340Z,52.4
2017-05-19T09:40:00.610Z,52.59
2017-05-19T09:41:10.565Z,52.31
2017-05-19T09:42:20.523Z,52.4
2017-05-19T09:43:30.478Z,52.31
2017-05-19T09:44:39.809Z,52.4
2017-05-19T09:45:50.084Z,52.69
2017-05-19T09:46:59.720Z,52.4
2017-05-19T09:48:09.042Z,52.89
2017-05-19T09:49:18.996Z,52.4
2017-05-19T09:50:28.951Z,52.4
2017-05-19T09:51:38.595Z,52.43
2017-05-19T09:52:48.236Z,52.21
2017-05-19T09:53:58.199Z,52.31
2017-05-19T09:55:08.463Z,52.31
2017-05-19T09:56:18.411Z,52.59
2017-05-19T09:57:28.368Z,52.5
2017-05-19T09:58:38.326Z,52.59
2017-05-19T09:59:48.296Z,52.31
2017-05-19T10:00:58.565Z,52.53
2017-05-19T10:02:08.834Z,52.31
2017-05-19T10:03:18.790Z,52.5
2017-05-19T10:04:28.749Z,52.5
2017-05-19T10:05:37.763Z,52.69
2017-05-19T10:06:47.410Z,52.79
2017-05-19T10:07:57.362Z,52.79
2017-05-19T10:09:07.628Z,52.11
2017-05-19T10:10:16.950Z,52.14
2017-05-19T10:11:26.901Z,52.4
2017-05-19T10:12:36.535Z,52.31
2017-05-19T10:13:45.873Z,52.31
2017-05-19T10:14:55.571Z,52.5
2017-05-19T10:16:05.524Z,52.4
2017-05-19T10:17:15.795Z,52.21
2017-05-19T10:18:25.756Z,52.11
2017-05-19T10:19:35.709Z,52.69
2017-05-19T10:20:45.978Z,52.59
2017-05-19T10:21:55.305Z,52.79
2017-05-19T10:23:05.573Z,52.4
2017-05-19T10:24:15.533Z,52.4
2017-05-19T10:25:25.485Z,52.21
2017-05-19T10:26:35.756Z,52.5
2017-05-19T10:27:45.708Z,52.4
2017-05-19T10:28:55.975Z,52.31
2017-05-19T10:30:05.930Z,52.21
2017-05-19T10:31:16.204Z,52.21
2017-05-19T10:32:26.157Z,52.4
2017-05-19T10:33:35.794Z,52.5
2017-05-19T10:34:45.773Z,52.31
2017-05-19T10:35:55.722Z,52.69
2017-05-19T10:37:05.677Z,52.4
2017-05-19T10:38:15.632Z,52.69
2017-05-19T10:39:25.914Z,53.27
2017-05-19T10:40:34.925Z,53.75
2017-05-19T10:41:44.564Z,53.27
2017-05-19T10:42:54.519Z,53.08
2017-05-19T10:44:04.160Z,52.98
2017-05-19T10:45:14.117Z,52.5
2017-05-19T10:46:24.381Z,52.89
2017-05-19T10:47:34.388Z,51.92
2017-05-19T10:48:44.035Z,51.07
2017-05-19T10:49:53.993Z,50.21
2017-05-19T10:51:04.270Z,49.92
2017-05-19T10:52:14.221Z,49.92
2017-05-19T10:53:23.858Z,49.53
2017-05-19T10:54:34.125Z,49.44
2017-05-19T10:55:43.768Z,49.15
2017-05-19T10:56:53.716Z,48.95
2017-05-19T10:58:03.345Z,48.66
2017-05-19T10:59:12.988Z,47.99
2017-05-19T11:00:22.938Z,48.57
2017-05-19T11:01:32.576Z,48.28
2017-05-19T11:02:42.540Z,48.18
2017-05-19T11:03:52.814Z,49.05
2017-05-19T11:05:02.765Z,48.37
2017-05-19T11:06:12.775Z,48.47
2017-05-19T11:07:22.414Z,49.24
2017-05-19T11:08:32.367Z,49.05
2017-05-19T11:09:42.327Z,49.24
2017-05-19T11:10:51.967Z,49.24
2017-05-19T11:12:01.927Z,48.57
2017-05-19T11:13:11.877Z,48.76
2017-05-19T11:14:21.524Z,48.57
2017-05-19T11:15:31.168Z,47.67
2017-05-19T11:16:41.435Z,47.99
2017-05-19T11:17:51.706Z,47.89
2017-05-19T11:19:01.663Z,48.08
2017-05-19T11:20:11.936Z,47.8
2017-05-19T11:21:22.207Z,47.7
2017-05-19T11:22:32.161Z,47.31
2017-05-19T11:23:42.137Z,48.57
2017-05-19T11:24:52.404Z,47.87
2017-05-19T11:26:02.668Z,47.89
2017-05-19T11:27:12.304Z,48.25
2017-05-19T11:28:22.254Z,47.29
2017-05-19T11:29:32.533Z,46.51
2017-05-19T11:30:42.496Z,47.67
2017-05-19T11:31:51.822Z,47.6
2017-05-19T11:33:01.138Z,46.61
2017-05-19T11:34:10.772Z,46.61
2017-05-19T11:35:20.423Z,46.64
2017-05-19T11:36:29.745Z,46.73
2017-05-19T11:37:39.729Z,46.83
2017-05-19T11:38:49.693Z,46.9
2017-05-19T11:39:59.389Z,46.25
2017-05-19T11:41:09.660Z,46.61
2017-05-19T11:42:18.667Z,46.23
2017-05-19T11:43:28.304Z,46.71
2017-05-19T11:44:38.318Z,45.84
2017-05-19T11:45:48.588Z,46.13
2017-05-19T11:46:58.228Z,46.23
2017-05-19T11:48:08.188Z,46.73
2017-05-19T11:49:17.525Z,46.03
2017-05-19T11:50:27.162Z,46.71
2017-05-19T11:51:36.484Z,45.26
2017-05-19T11:52:46.758Z,45.84
2017-05-19T11:53:56.711Z,45.38
2017-05-19T11:55:06.981Z,45.18
2017-05-19T11:56:17.249Z,45.96
2017-05-19T11:57:27.219Z,45.18
2017-05-19T11:58:37.498Z,45.18
2017-05-19T11:59:47.140Z,45.38
2017-05-19T12:00:57.098Z,46.06
2017-05-19T12:02:07.053Z,45.84
2017-05-19T12:03:16.694Z,45.18
2017-05-19T12:04:26.353Z,45.96
2017-05-19T12:05:36.622Z,45.36
2017-05-19T12:06:46.891Z,45.18
2017-05-19T12:07:56.853Z,45.18
2017-05-19T12:09:07.137Z,45.09
2017-05-19T12:10:17.411Z,45.75
2017-05-19T12:11:27.052Z,46.03
2017-05-19T12:12:37.318Z,45.67
2017-05-19T12:13:47.275Z,45.09
2017-05-19T12:14:57.541Z,45.28
2017-05-19T12:16:07.180Z,44.22
2017-05-19T12:17:17.142Z,44.9
2017-05-19T12:18:27.108Z,45.18
2017-05-19T12:19:37.058Z,44.9
2017-05-19T12:20:47.325Z,44.8
2017-05-19T12:21:57.272Z,44.6
2017-05-19T12:23:06.909Z,44.9
2017-05-19T12:24:17.177Z,45.28
2017-05-19T12:25:26.501Z,45
2017-05-19T12:26:36.513Z,44.8
2017-05-19T12:27:46.785Z,45.09
2017-05-19T12:28:57.051Z,45.09
2017-05-19T12:30:07.312Z,45.76
2017-05-19T12:31:16.351Z,44.9
2017-05-19T12:32:26.306Z,45
2017-05-19T12:33:36.576Z,44.9
2017-05-19T12:34:46.205Z,44.9
2017-05-19T12:35:55.534Z,45.09
2017-05-19T12:37:05.172Z,45.96
2017-05-19T12:38:14.816Z,44.8
2017-05-19T12:39:24.769Z,44.9
2017-05-19T12:40:35.032Z,45.57
2017-05-19T12:41:45.313Z,45
2017-05-19T12:42:55.268Z,45.18
2017-05-19T12:44:05.539Z,45.09
2017-05-19T12:45:15.527Z,44.9
2017-05-19T12:46:25.482Z,45.28
2017-05-19T12:47:35.748Z,45
2017-05-19T12:48:45.707Z,44.32
2017-05-19T12:49:55.981Z,44.7
2017-05-19T12:51:05.933Z,45
2017-05-19T12:52:15.883Z,44.9
2017-05-19T12:53:26.150Z,44.6
2017-05-19T12:54:36.109Z,44.22
2017-05-19T12:55:46.375Z,44.8
2017-05-19T12:56:56.014Z,43.74
2017-05-19T12:58:05.974Z,44.03
2017-05-19T12:59:15.933Z,44.12
2017-05-19T13:00:25.894Z,44.03
2017-05-19T13:01:35.852Z,43.84
2017-05-19T13:02:45.796Z,43.93
2017-05-19T13:03:55.759Z,44.32
2017-05-19T13:05:05.724Z,44.32
2017-05-19T13:06:15.675Z,44.22
2017-05-19T13:07:25.628Z,44.42
2017-05-19T13:08:35.580Z,44.22
2017-05-19T13:09:45.537Z,44.32
2017-05-19T13:10:55.807Z,44.03
2017-05-19T13:12:05.441Z,43.93
2017-05-19T13:13:15.715Z,43.54
2017-05-19T13:14:25.356Z,43.64
2017-05-19T13:15:35.003Z,44.22
2017-05-19T13:16:44.328Z,43.64
2017-05-19T13:17:53.967Z,43.74
2017-05-19T13:19:04.241Z,44.12
2017-05-19T13:20:14.191Z,43.26
2017-05-19T13:21:23.509Z,43.64
2017-05-19T13:22:33.461Z,43.35
2017-05-19T13:23:43.418Z,43.54
2017-05-19T13:24:53.373Z,44.03
2017-05-19T13:26:03.644Z,44.42
2017-05-19T13:27:13.281Z,44.8
2017-05-19T13:28:23.549Z,44.6
2017-05-19T13:29:33.206Z,45.38
2017-05-19T13:30:43.163Z,45.28
2017-05-19T13:31:53.432Z,45.57
2017-05-19T13:33:02.758Z,45.28
2017-05-19T13:34:12.394Z,45.96
2017-05-19T13:35:22.352Z,45.28
2017-05-19T13:36:32.617Z,46.34
2017-05-19T13:37:42.571Z,46.15
2017-05-19T13:38:52.550Z,45.86
2017-05-19T13:40:02.509Z,45.76
2017-05-19T13:41:12.778Z,46.44
2017-05-19T13:42:21.789Z,46.73
2017-05-19T13:43:31.429Z,45.96
2017-05-19T13:44:41.707Z,46.44
2017-05-19T13:45:51.355Z,46.06
2017-05-19T13:47:01.305Z,45.86
2017-05-19T13:48:10.949Z,46.54
2017-05-19T13:49:20.903Z,47.02
2017-05-19T13:50:30.858Z,46.64
2017-05-19T13:51:40.805Z,46.44
2017-05-19T13:52:50.763Z,46.73
2017-05-19T13:54:01.027Z,46.83
2017-05-19T13:55:11.291Z,46.64
2017-05-19T13:56:20.609Z,46.83
2017-05-19T13:57:29.935Z,47.02
2017-05-19T13:58:39.905Z,47.41
2017-05-19T13:59:49.880Z,47.5
2017-05-19T14:00:59.897Z,47.5
2017-05-19T14:02:09.854Z,47.8
2017-05-19T14:03:19.180Z,47.12
2017-05-19T14:04:29.135Z,47.7
2017-05-19T14:05:38.823Z,47.5
2017-05-19T14:06:49.096Z,47.5
2017-05-19T14:07:59.050Z,47.7
2017-05-19T14:09:09.010Z,47.41
2017-05-19T14:10:18.967Z,47.6
2017-05-19T14:11:29.233Z,47.5
2017-05-19T14:12:39.188Z,47.6
2017-05-19T14:13:49.173Z,47.8
2017-05-19T14:14:59.129Z,48.28
2017-05-19T14:16:09.090Z,47.7
2017-05-19T14:17:19.050Z,47.8
2017-05-19T14:18:29.334Z,47.8
2017-05-19T14:19:39.288Z,47.89
2017-05-19T14:20:49.552Z,47.89
2017-05-19T14:21:59.560Z,47.99
2017-05-19T14:23:09.823Z,48.37
2017-05-19T14:24:20.104Z,48.47
2017-05-19T14:25:29.752Z,48.47
2017-05-19T14:26:39.705Z,48.37
2017-05-19T14:27:49.342Z,48.37
2017-05-19T14:28:59.000Z,48.47
2017-05-19T14:30:08.961Z,48.37
2017-05-19T14:31:18.604Z,48.28
2017-05-19T14:32:28.872Z,48.47
2017-05-19T14:33:38.827Z,48.37
2017-05-19T14:34:48.778Z,48.76
2017-05-19T14:35:59.055Z,48.66
2017-05-19T14:37:09.014Z,48.66
2017-05-19T14:38:18.661Z,48.76
2017-05-19T14:39:28.618Z,48.86
2017-05-19T14:40:38.892Z,48.95
2017-05-19T14:41:48.849Z,48.95
2017-05-19T14:42:59.118Z,48.57
2017-05-19T14:44:09.075Z,48.86
2017-05-19T14:45:19.026Z,48.66
2017-05-19T14:46:28.983Z,48.37
2017-05-19T14:47:39.254Z,48.47
2017-05-19T14:48:49.571Z,48.76
2017-05-19T14:49:59.853Z,48.66
2017-05-19T14:51:10.123Z,48.66
2017-05-19T14:52:20.390Z,48.76
2017-05-19T14:53:30.653Z,49.15
2017-05-19T14:54:40.920Z,49.24
2017-05-19T14:55:50.874Z,48.76
2017-05-19T14:57:00.511Z,49.24
2017-05-19T14:58:10.176Z,49.05
2017-05-19T14:59:20.139Z,49.24
2017-05-19T15:00:29.785Z,49.15
2017-05-19T15:01:40.054Z,49.05
2017-05-19T15:02:49.694Z,49.15
2017-05-19T15:03:59.346Z,48.95
2017-05-19T15:05:09.629Z,48.66
2017-05-19T15:06:19.583Z,48.76